sensor_id;sensor_type;location;lat;lon;timestamp;P1;durP1;ratioP1;P2;durP2;ratioP2
62014;SDS011;47970;52.396;9.586;2022-12-16T00:00:08;16.92;;;8.18;;
62014;SDS011;47970;52.396;9.586;2022-12-16T00:02:34;23.25;;;9.85;;
62014;SDS011;47970;52.396;9.586;2022-12-16T00:04:59;22.38;;;9.00;;
62014;SDS011;47970;52.396;9.586;2022-12-16T00:07:24;21.23;;;9.50;;
62014;SDS011;47970;52.396;9.586;2022-12-16T00:09:49;22.07;;;10.73;;
62014;SDS011;47970;52.396;9.586;2022-12-16T00:12:15;24.58;;;10.15;;
62014;SDS011;47970;52.396;9.586;2022-12-16T00:14:40;26.97;;;9.97;;
62014;SDS011;47970;52.396;9.586;2022-12-16T00:17:05;20.35;;;9.55;;
62014;SDS011;47970;52.396;9.586;2022-12-16T00:19:30;21.92;;;8.50;;
62014;SDS011;47970;52.396;9.586;2022-12-16T00:21:56;20.63;;;10.13;;
62014;SDS011;47970;52.396;9.586;2022-12-16T00:24:21;27.42;;;10.25;;
62014;SDS011;47970;52.396;9.586;2022-12-16T00:26:46;23.98;;;10.40;;
62014;SDS011;47970;52.396;9.586;2022-12-16T00:29:11;17.75;;;9.20;;
62014;SDS011;47970;52.396;9.586;2022-12-16T00:31:36;22.98;;;10.80;;
62014;SDS011;47970;52.396;9.586;2022-12-16T00:34:02;20.00;;;9.10;;
62014;SDS011;47970;52.396;9.586;2022-12-16T00:36:27;21.48;;;9.60;;
62014;SDS011;47970;52.396;9.586;2022-12-16T00:38:52;20.05;;;9.32;;
62014;SDS011;47970;52.396;9.586;2022-12-16T00:41:18;24.27;;;9.68;;
62014;SDS011;47970;52.396;9.586;2022-12-16T00:43:43;24.25;;;9.23;;
62014;SDS011;47970;52.396;9.586;2022-12-16T00:46:08;23.65;;;10.20;;
62014;SDS011;47970;52.396;9.586;2022-12-16T00:48:33;21.20;;;10.57;;
62014;SDS011;47970;52.396;9.586;2022-12-16T00:50:59;25.58;;;9.43;;
62014;SDS011;47970;52.396;9.586;2022-12-16T00:53:24;17.90;;;8.88;;
62014;SDS011;47970;52.396;9.586;2022-12-16T00:55:50;24.75;;;9.73;;
62014;SDS011;47970;52.396;9.586;2022-12-16T00:58:15;20.33;;;9.05;;
62014;SDS011;47970;52.396;9.586;2022-12-16T01:00:41;21.88;;;9.77;;
62014;SDS011;47970;52.396;9.586;2022-12-16T01:03:06;22.98;;;10.20;;
62014;SDS011;47970;52.396;9.586;2022-12-16T01:05:31;21.63;;;9.40;;
62014;SDS011;47970;52.396;9.586;2022-12-16T01:07:56;26.45;;;9.77;;
62014;SDS011;47970;52.396;9.586;2022-12-16T01:10:23;21.02;;;9.27;;
62014;SDS011;47970;52.396;9.586;2022-12-16T01:12:48;22.92;;;10.32;;
62014;SDS011;47970;52.396;9.586;2022-12-16T01:15:13;22.08;;;7.97;;
62014;SDS011;47970;52.396;9.586;2022-12-16T01:17:39;18.40;;;9.30;;
62014;SDS011;47970;52.396;9.586;2022-12-16T01:20:05;25.80;;;11.20;;
62014;SDS011;47970;52.396;9.586;2022-12-16T01:22:31;23.50;;;9.95;;
62014;SDS011;47970;52.396;9.586;2022-12-16T01:24:57;20.45;;;9.98;;
62014;SDS011;47970;52.396;9.586;2022-12-16T01:27:22;22.48;;;9.65;;
62014;SDS011;47970;52.396;9.586;2022-12-16T01:29:47;16.77;;;8.32;;
62014;SDS011;47970;52.396;9.586;2022-12-16T01:32:14;14.23;;;7.50;;
62014;SDS011;47970;52.396;9.586;2022-12-16T01:34:40;20.33;;;9.32;;
62014;SDS011;47970;52.396;9.586;2022-12-16T01:37:05;20.13;;;8.80;;
62014;SDS011;47970;52.396;9.586;2022-12-16T01:39:30;16.90;;;8.35;;
62014;SDS011;47970;52.396;9.586;2022-12-16T01:41:56;19.15;;;8.40;;
62014;SDS011;47970;52.396;9.586;2022-12-16T01:44:23;17.15;;;8.52;;
62014;SDS011;47970;52.396;9.586;2022-12-16T01:46:49;16.73;;;8.35;;
62014;SDS011;47970;52.396;9.586;2022-12-16T01:49:25;22.67;;;9.45;;
62014;SDS011;47970;52.396;9.586;2022-12-16T01:51:51;16.85;;;7.25;;
62014;SDS011;47970;52.396;9.586;2022-12-16T01:54:19;16.42;;;8.20;;
62014;SDS011;47970;52.396;9.586;2022-12-16T01:56:59;12.80;;;6.63;;
62014;SDS011;47970;52.396;9.586;2022-12-16T01:59:26;20.00;;;7.43;;
62014;SDS011;47970;52.396;9.586;2022-12-16T02:01:52;16.83;;;7.32;;
62014;SDS011;47970;52.396;9.586;2022-12-16T02:04:17;16.33;;;7.25;;
62014;SDS011;47970;52.396;9.586;2022-12-16T02:06:42;17.63;;;7.93;;
62014;SDS011;47970;52.396;9.586;2022-12-16T02:09:08;15.98;;;7.25;;
62014;SDS011;47970;52.396;9.586;2022-12-16T02:22:31;14.50;;;6.95;;
62014;SDS011;47970;52.396;9.586;2022-12-16T02:42:57;11.60;;;6.40;;
62014;SDS011;47970;52.396;9.586;2022-12-16T02:45:25;15.32;;;6.88;;
62014;SDS011;47970;52.396;9.586;2022-12-16T02:47:51;16.98;;;6.88;;
62014;SDS011;47970;52.396;9.586;2022-12-16T02:50:18;14.32;;;6.88;;
62014;SDS011;47970;52.396;9.586;2022-12-16T02:52:44;17.60;;;7.18;;
62014;SDS011;47970;52.396;9.586;2022-12-16T02:55:10;18.65;;;7.53;;
62014;SDS011;47970;52.396;9.586;2022-12-16T02:57:54;13.15;;;6.60;;
62014;SDS011;47970;52.396;9.586;2022-12-16T03:00:23;17.73;;;7.13;;
62014;SDS011;47970;52.396;9.586;2022-12-16T03:05:22;19.00;;;8.70;;
62014;SDS011;47970;52.396;9.586;2022-12-16T03:07:49;14.32;;;6.72;;
62014;SDS011;47970;52.396;9.586;2022-12-16T03:10:16;18.25;;;7.40;;
62014;SDS011;47970;52.396;9.586;2022-12-16T03:12:44;17.02;;;7.53;;
62014;SDS011;47970;52.396;9.586;2022-12-16T03:15:10;18.05;;;7.60;;
62014;SDS011;47970;52.396;9.586;2022-12-16T03:17:37;16.63;;;7.50;;
62014;SDS011;47970;52.396;9.586;2022-12-16T03:20:06;17.23;;;5.53;;
62014;SDS011;47970;52.396;9.586;2022-12-16T03:22:33;13.35;;;7.03;;
62014;SDS011;47970;52.396;9.586;2022-12-16T03:25:00;14.60;;;7.50;;
62014;SDS011;47970;52.396;9.586;2022-12-16T03:27:28;16.08;;;6.72;;
62014;SDS011;47970;52.396;9.586;2022-12-16T03:32:21;21.53;;;8.70;;
62014;SDS011;47970;52.396;9.586;2022-12-16T03:34:55;14.20;;;6.35;;
62014;SDS011;47970;52.396;9.586;2022-12-16T03:37:23;13.55;;;6.53;;
62014;SDS011;47970;52.396;9.586;2022-12-16T03:39:52;11.82;;;6.28;;
62014;SDS011;47970;52.396;9.586;2022-12-16T03:42:18;12.55;;;6.22;;
62014;SDS011;47970;52.396;9.586;2022-12-16T03:44:44;8.80;;;5.28;;
62014;SDS011;47970;52.396;9.586;2022-12-16T03:47:10;12.38;;;7.20;;
62014;SDS011;47970;52.396;9.586;2022-12-16T03:49:35;10.13;;;5.82;;
62014;SDS011;47970;52.396;9.586;2022-12-16T03:52:01;17.88;;;6.53;;
62014;SDS011;47970;52.396;9.586;2022-12-16T03:54:27;16.35;;;6.40;;
62014;SDS011;47970;52.396;9.586;2022-12-16T03:56:53;14.32;;;6.68;;
62014;SDS011;47970;52.396;9.586;2022-12-16T03:59:18;17.17;;;7.95;;
62014;SDS011;47970;52.396;9.586;2022-12-16T04:01:43;15.32;;;5.50;;
62014;SDS011;47970;52.396;9.586;2022-12-16T04:04:08;15.35;;;6.20;;
62014;SDS011;47970;52.396;9.586;2022-12-16T04:06:34;16.13;;;7.72;;
62014;SDS011;47970;52.396;9.586;2022-12-16T04:08:59;17.50;;;8.02;;
62014;SDS011;47970;52.396;9.586;2022-12-16T04:11:24;14.43;;;6.95;;
62014;SDS011;47970;52.396;9.586;2022-12-16T04:14:08;21.75;;;8.35;;
62014;SDS011;47970;52.396;9.586;2022-12-16T04:16:52;14.48;;;6.75;;
62014;SDS011;47970;52.396;9.586;2022-12-16T04:19:36;14.55;;;6.85;;
62014;SDS011;47970;52.396;9.586;2022-12-16T04:22:24;15.18;;;7.53;;
62014;SDS011;47970;52.396;9.586;2022-12-16T04:25:13;14.00;;;6.85;;
62014;SDS011;47970;52.396;9.586;2022-12-16T04:27:39;9.23;;;5.10;;
62014;SDS011;47970;52.396;9.586;2022-12-16T04:30:04;11.97;;;5.87;;
62014;SDS011;47970;52.396;9.586;2022-12-16T04:32:46;14.45;;;6.55;;
62014;SDS011;47970;52.396;9.586;2022-12-16T04:35:31;10.35;;;6.07;;
62014;SDS011;47970;52.396;9.586;2022-12-16T04:38:15;14.10;;;5.95;;
62014;SDS011;47970;52.396;9.586;2022-12-16T04:40:58;15.57;;;6.88;;
62014;SDS011;47970;52.396;9.586;2022-12-16T04:43:42;11.10;;;5.22;;
62014;SDS011;47970;52.396;9.586;2022-12-16T04:46:26;10.88;;;5.45;;
62014;SDS011;47970;52.396;9.586;2022-12-16T04:49:10;13.93;;;6.70;;
62014;SDS011;47970;52.396;9.586;2022-12-16T04:51:54;17.17;;;7.57;;
62014;SDS011;47970;52.396;9.586;2022-12-16T04:54:38;12.02;;;6.03;;
62014;SDS011;47970;52.396;9.586;2022-12-16T04:57:22;7.75;;;4.70;;
62014;SDS011;47970;52.396;9.586;2022-12-16T05:00:06;15.45;;;6.70;;
62014;SDS011;47970;52.396;9.586;2022-12-16T05:02:50;29.13;;;6.90;;
62014;SDS011;47970;52.396;9.586;2022-12-16T05:05:34;13.30;;;5.28;;
62014;SDS011;47970;52.396;9.586;2022-12-16T05:08:18;19.20;;;6.78;;
62014;SDS011;47970;52.396;9.586;2022-12-16T05:11:06;13.57;;;6.15;;
62014;SDS011;47970;52.396;9.586;2022-12-16T05:13:50;13.95;;;5.57;;
62014;SDS011;47970;52.396;9.586;2022-12-16T05:16:34;13.57;;;6.85;;
62014;SDS011;47970;52.396;9.586;2022-12-16T05:19:18;15.48;;;6.32;;
62014;SDS011;47970;52.396;9.586;2022-12-16T05:22:02;13.60;;;6.50;;
62014;SDS011;47970;52.396;9.586;2022-12-16T05:24:46;12.32;;;5.45;;
62014;SDS011;47970;52.396;9.586;2022-12-16T05:27:30;8.20;;;4.72;;
62014;SDS011;47970;52.396;9.586;2022-12-16T05:30:13;15.77;;;6.28;;
62014;SDS011;47970;52.396;9.586;2022-12-16T05:32:57;8.20;;;5.22;;
62014;SDS011;47970;52.396;9.586;2022-12-16T05:35:41;10.43;;;5.45;;
62014;SDS011;47970;52.396;9.586;2022-12-16T05:38:25;20.63;;;7.07;;
62014;SDS011;47970;52.396;9.586;2022-12-16T05:41:09;13.40;;;6.57;;
62014;SDS011;47970;52.396;9.586;2022-12-16T05:43:53;11.70;;;5.47;;
62014;SDS011;47970;52.396;9.586;2022-12-16T05:46:37;12.48;;;6.03;;
62014;SDS011;47970;52.396;9.586;2022-12-16T05:49:20;11.10;;;6.28;;
62014;SDS011;47970;52.396;9.586;2022-12-16T05:52:04;12.25;;;4.82;;
62014;SDS011;47970;52.396;9.586;2022-12-16T05:54:48;12.10;;;6.03;;
62014;SDS011;47970;52.396;9.586;2022-12-16T05:57:32;13.88;;;7.00;;
62014;SDS011;47970;52.396;9.586;2022-12-16T06:00:16;20.27;;;7.55;;
62014;SDS011;47970;52.396;9.586;2022-12-16T06:03:00;11.10;;;6.75;;
62014;SDS011;47970;52.396;9.586;2022-12-16T06:05:44;10.70;;;5.63;;
62014;SDS011;47970;52.396;9.586;2022-12-16T06:08:28;25.52;;;6.40;;
62014;SDS011;47970;52.396;9.586;2022-12-16T06:11:12;19.17;;;6.40;;
62014;SDS011;47970;52.396;9.586;2022-12-16T06:13:56;17.40;;;6.57;;
62014;SDS011;47970;52.396;9.586;2022-12-16T06:16:40;12.75;;;6.68;;
62014;SDS011;47970;52.396;9.586;2022-12-16T06:19:23;14.32;;;6.55;;
62014;SDS011;47970;52.396;9.586;2022-12-16T06:22:07;17.02;;;6.35;;
62014;SDS011;47970;52.396;9.586;2022-12-16T06:24:51;13.75;;;6.93;;
62014;SDS011;47970;52.396;9.586;2022-12-16T06:27:35;25.45;;;8.18;;
62014;SDS011;47970;52.396;9.586;2022-12-16T06:30:19;10.57;;;5.43;;
62014;SDS011;47970;52.396;9.586;2022-12-16T06:33:03;13.57;;;6.60;;
62014;SDS011;47970;52.396;9.586;2022-12-16T06:35:47;13.02;;;6.70;;
62014;SDS011;47970;52.396;9.586;2022-12-16T06:38:31;11.15;;;6.78;;
62014;SDS011;47970;52.396;9.586;2022-12-16T06:41:15;14.75;;;7.25;;
62014;SDS011;47970;52.396;9.586;2022-12-16T06:43:59;14.15;;;7.13;;
62014;SDS011;47970;52.396;9.586;2022-12-16T06:46:43;13.02;;;6.95;;
62014;SDS011;47970;52.396;9.586;2022-12-16T06:49:27;10.23;;;5.68;;
62014;SDS011;47970;52.396;9.586;2022-12-16T06:52:11;19.67;;;7.07;;
62014;SDS011;47970;52.396;9.586;2022-12-16T06:54:55;14.10;;;8.20;;
62014;SDS011;47970;52.396;9.586;2022-12-16T06:57:38;17.10;;;7.63;;
62014;SDS011;47970;52.396;9.586;2022-12-16T07:00:22;11.40;;;7.10;;
62014;SDS011;47970;52.396;9.586;2022-12-16T07:03:06;12.55;;;6.18;;
62014;SDS011;47970;52.396;9.586;2022-12-16T07:05:55;18.60;;;6.47;;
62014;SDS011;47970;52.396;9.586;2022-12-16T07:08:39;15.73;;;8.18;;
62014;SDS011;47970;52.396;9.586;2022-12-16T07:11:22;16.40;;;8.95;;
62014;SDS011;47970;52.396;9.586;2022-12-16T07:14:06;17.52;;;8.98;;
62014;SDS011;47970;52.396;9.586;2022-12-16T07:16:50;25.25;;;9.82;;
62014;SDS011;47970;52.396;9.586;2022-12-16T07:19:34;20.10;;;9.13;;
62014;SDS011;47970;52.396;9.586;2022-12-16T07:22:18;12.20;;;7.20;;
62014;SDS011;47970;52.396;9.586;2022-12-16T07:25:02;24.10;;;9.10;;
62014;SDS011;47970;52.396;9.586;2022-12-16T07:27:46;16.98;;;8.75;;
62014;SDS011;47970;52.396;9.586;2022-12-16T07:30:30;16.20;;;7.50;;
62014;SDS011;47970;52.396;9.586;2022-12-16T07:33:14;22.95;;;8.88;;
62014;SDS011;47970;52.396;9.586;2022-12-16T07:35:58;20.35;;;9.07;;
62014;SDS011;47970;52.396;9.586;2022-12-16T07:38:42;25.83;;;10.95;;
62014;SDS011;47970;52.396;9.586;2022-12-16T07:41:26;39.65;;;12.15;;
62014;SDS011;47970;52.396;9.586;2022-12-16T07:44:10;17.05;;;9.30;;
62014;SDS011;47970;52.396;9.586;2022-12-16T07:46:54;19.02;;;9.18;;
62014;SDS011;47970;52.396;9.586;2022-12-16T07:49:38;18.83;;;8.68;;
62014;SDS011;47970;52.396;9.586;2022-12-16T07:52:22;15.40;;;8.13;;
62014;SDS011;47970;52.396;9.586;2022-12-16T07:55:06;19.25;;;8.57;;
62014;SDS011;47970;52.396;9.586;2022-12-16T07:57:50;18.88;;;8.77;;
62014;SDS011;47970;52.396;9.586;2022-12-16T08:00:34;15.27;;;7.43;;
62014;SDS011;47970;52.396;9.586;2022-12-16T08:03:18;20.77;;;10.48;;
62014;SDS011;47970;52.396;9.586;2022-12-16T08:06:02;20.50;;;10.75;;
62014;SDS011;47970;52.396;9.586;2022-12-16T08:08:46;19.00;;;8.27;;
62014;SDS011;47970;52.396;9.586;2022-12-16T08:11:30;31.55;;;9.60;;
62014;SDS011;47970;52.396;9.586;2022-12-16T08:14:14;18.55;;;9.35;;
62014;SDS011;47970;52.396;9.586;2022-12-16T08:16:58;25.90;;;10.15;;
62014;SDS011;47970;52.396;9.586;2022-12-16T08:19:42;21.95;;;8.77;;
62014;SDS011;47970;52.396;9.586;2022-12-16T08:22:26;19.52;;;9.75;;
62014;SDS011;47970;52.396;9.586;2022-12-16T08:25:10;14.00;;;7.97;;
62014;SDS011;47970;52.396;9.586;2022-12-16T08:27:54;19.50;;;7.93;;
62014;SDS011;47970;52.396;9.586;2022-12-16T08:30:38;17.60;;;7.65;;
62014;SDS011;47970;52.396;9.586;2022-12-16T08:33:22;17.08;;;8.35;;
62014;SDS011;47970;52.396;9.586;2022-12-16T08:36:06;14.45;;;7.28;;
62014;SDS011;47970;52.396;9.586;2022-12-16T08:38:50;19.27;;;7.47;;
62014;SDS011;47970;52.396;9.586;2022-12-16T08:41:34;20.02;;;7.22;;
62014;SDS011;47970;52.396;9.586;2022-12-16T08:44:18;14.15;;;7.57;;
62014;SDS011;47970;52.396;9.586;2022-12-16T08:47:02;16.65;;;7.78;;
62014;SDS011;47970;52.396;9.586;2022-12-16T08:49:47;15.90;;;7.65;;
62014;SDS011;47970;52.396;9.586;2022-12-16T08:52:30;20.50;;;8.65;;
62014;SDS011;47970;52.396;9.586;2022-12-16T08:55:14;17.88;;;8.95;;
62014;SDS011;47970;52.396;9.586;2022-12-16T08:57:58;13.95;;;7.93;;
62014;SDS011;47970;52.396;9.586;2022-12-16T09:00:42;16.00;;;7.50;;
62014;SDS011;47970;52.396;9.586;2022-12-16T09:03:26;24.45;;;8.77;;
62014;SDS011;47970;52.396;9.586;2022-12-16T09:06:10;14.43;;;7.65;;
62014;SDS011;47970;52.396;9.586;2022-12-16T09:08:54;18.30;;;7.82;;
62014;SDS011;47970;52.396;9.586;2022-12-16T09:11:38;15.88;;;7.22;;
62014;SDS011;47970;52.396;9.586;2022-12-16T09:14:22;20.23;;;7.25;;
62014;SDS011;47970;52.396;9.586;2022-12-16T09:17:06;17.05;;;7.78;;
62014;SDS011;47970;52.396;9.586;2022-12-16T09:19:50;15.13;;;7.32;;
62014;SDS011;47970;52.396;9.586;2022-12-16T09:22:34;16.65;;;7.55;;
62014;SDS011;47970;52.396;9.586;2022-12-16T09:25:23;14.27;;;6.70;;
62014;SDS011;47970;52.396;9.586;2022-12-16T09:28:06;20.13;;;7.15;;
62014;SDS011;47970;52.396;9.586;2022-12-16T09:30:50;16.15;;;7.15;;
62014;SDS011;47970;52.396;9.586;2022-12-16T09:33:36;21.05;;;8.45;;
62014;SDS011;47970;52.396;9.586;2022-12-16T09:36:19;17.85;;;8.63;;
62014;SDS011;47970;52.396;9.586;2022-12-16T09:39:03;24.08;;;10.23;;
62014;SDS011;47970;52.396;9.586;2022-12-16T09:44:51;21.83;;;9.25;;
62014;SDS011;47970;52.396;9.586;2022-12-16T09:50:39;18.05;;;8.82;;
62014;SDS011;47970;52.396;9.586;2022-12-16T09:53:24;19.80;;;8.40;;
62014;SDS011;47970;52.396;9.586;2022-12-16T09:56:13;17.80;;;8.93;;
62014;SDS011;47970;52.396;9.586;2022-12-16T09:58:58;19.13;;;9.07;;
62014;SDS011;47970;52.396;9.586;2022-12-16T10:01:43;21.00;;;9.48;;
62014;SDS011;47970;52.396;9.586;2022-12-16T10:04:27;15.88;;;7.80;;
62014;SDS011;47970;52.396;9.586;2022-12-16T10:07:20;21.52;;;7.10;;
62014;SDS011;47970;52.396;9.586;2022-12-16T10:12:50;23.20;;;9.90;;
62014;SDS011;47970;52.396;9.586;2022-12-16T10:15:37;25.52;;;11.60;;
62014;SDS011;47970;52.396;9.586;2022-12-16T10:18:32;30.05;;;10.45;;
62014;SDS011;47970;52.396;9.586;2022-12-16T10:21:20;19.40;;;9.38;;
62014;SDS011;47970;52.396;9.586;2022-12-16T10:29:52;19.75;;;10.00;;
62014;SDS011;47970;52.396;9.586;2022-12-16T10:35:21;19.33;;;9.68;;
62014;SDS011;47970;52.396;9.586;2022-12-16T10:38:06;22.40;;;9.90;;
62014;SDS011;47970;52.396;9.586;2022-12-16T10:40:54;21.10;;;9.23;;
62014;SDS011;47970;52.396;9.586;2022-12-16T10:43:38;18.30;;;8.52;;
62014;SDS011;47970;52.396;9.586;2022-12-16T10:46:26;15.18;;;7.90;;
62014;SDS011;47970;52.396;9.586;2022-12-16T10:49:12;13.27;;;6.97;;
62014;SDS011;47970;52.396;9.586;2022-12-16T10:51:56;12.90;;;7.38;;
62014;SDS011;47970;52.396;9.586;2022-12-16T10:54:41;19.10;;;8.65;;
62014;SDS011;47970;52.396;9.586;2022-12-16T11:00:18;17.48;;;9.23;;
62014;SDS011;47970;52.396;9.586;2022-12-16T11:06:42;19.55;;;8.95;;
62014;SDS011;47970;52.396;9.586;2022-12-16T11:09:32;20.88;;;9.65;;
62014;SDS011;47970;52.396;9.586;2022-12-16T11:18:16;23.33;;;10.57;;
62014;SDS011;47970;52.396;9.586;2022-12-16T11:21:05;17.80;;;9.65;;
62014;SDS011;47970;52.396;9.586;2022-12-16T11:24:05;21.20;;;9.90;;
62014;SDS011;47970;52.396;9.586;2022-12-16T11:26:57;21.25;;;10.75;;
62014;SDS011;47970;52.396;9.586;2022-12-16T11:30:41;21.40;;;10.45;;
62014;SDS011;47970;52.396;9.586;2022-12-16T11:32:54;22.08;;;10.07;;
62014;SDS011;47970;52.396;9.586;2022-12-16T11:35:40;23.02;;;10.95;;
62014;SDS011;47970;52.396;9.586;2022-12-16T11:38:44;31.30;;;12.23;;
62014;SDS011;47970;52.396;9.586;2022-12-16T11:41:34;27.13;;;10.98;;
62014;SDS011;47970;52.396;9.586;2022-12-16T11:44:20;19.80;;;10.05;;
62014;SDS011;47970;52.396;9.586;2022-12-16T11:47:07;29.95;;;11.77;;
62014;SDS011;47970;52.396;9.586;2022-12-16T11:49:53;23.15;;;10.32;;
62014;SDS011;47970;52.396;9.586;2022-12-16T11:52:39;28.65;;;12.32;;
62014;SDS011;47970;52.396;9.586;2022-12-16T11:55:26;28.50;;;13.20;;
62014;SDS011;47970;52.396;9.586;2022-12-16T11:58:14;27.55;;;12.98;;
62014;SDS011;47970;52.396;9.586;2022-12-16T12:03:45;23.63;;;11.55;;
62014;SDS011;47970;52.396;9.586;2022-12-16T12:09:22;24.40;;;12.65;;
62014;SDS011;47970;52.396;9.586;2022-12-16T12:12:30;27.75;;;11.90;;
62014;SDS011;47970;52.396;9.586;2022-12-16T12:15:19;31.13;;;13.00;;
62014;SDS011;47970;52.396;9.586;2022-12-16T12:18:13;21.83;;;10.63;;
62014;SDS011;47970;52.396;9.586;2022-12-16T12:21:08;26.35;;;12.07;;
62014;SDS011;47970;52.396;9.586;2022-12-16T12:26:41;27.38;;;11.18;;
62014;SDS011;47970;52.396;9.586;2022-12-16T12:38:06;22.42;;;11.38;;
62014;SDS011;47970;52.396;9.586;2022-12-16T12:44:11;19.52;;;10.88;;
62014;SDS011;47970;52.396;9.586;2022-12-16T12:46:59;30.17;;;11.52;;
62014;SDS011;47970;52.396;9.586;2022-12-16T12:50:05;22.58;;;10.52;;
62014;SDS011;47970;52.396;9.586;2022-12-16T12:52:56;25.52;;;11.38;;
62014;SDS011;47970;52.396;9.586;2022-12-16T12:58:25;23.30;;;10.85;;
62014;SDS011;47970;52.396;9.586;2022-12-16T13:01:10;24.83;;;11.13;;
62014;SDS011;47970;52.396;9.586;2022-12-16T13:04:00;22.30;;;10.52;;
62014;SDS011;47970;52.396;9.586;2022-12-16T13:06:46;22.50;;;10.52;;
62014;SDS011;47970;52.396;9.586;2022-12-16T13:09:31;25.75;;;12.25;;
62014;SDS011;47970;52.396;9.586;2022-12-16T13:15:10;23.75;;;11.90;;
62014;SDS011;47970;52.396;9.586;2022-12-16T13:20:47;19.15;;;10.55;;
62014;SDS011;47970;52.396;9.586;2022-12-16T13:26:17;20.85;;;10.00;;
62014;SDS011;47970;52.396;9.586;2022-12-16T13:29:05;21.40;;;10.02;;
62014;SDS011;47970;52.396;9.586;2022-12-16T13:46:39;17.63;;;8.40;;
62014;SDS011;47970;52.396;9.586;2022-12-16T13:55:39;19.75;;;9.80;;
62014;SDS011;47970;52.396;9.586;2022-12-16T14:01:10;21.10;;;9.52;;
62014;SDS011;47970;52.396;9.586;2022-12-16T14:03:54;21.88;;;9.73;;
62014;SDS011;47970;52.396;9.586;2022-12-16T14:06:42;25.98;;;10.18;;
62014;SDS011;47970;52.396;9.586;2022-12-16T14:09:31;19.65;;;10.38;;
62014;SDS011;47970;52.396;9.586;2022-12-16T14:15:09;26.48;;;10.60;;
62014;SDS011;47970;52.396;9.586;2022-12-16T14:17:59;20.40;;;10.38;;
62014;SDS011;47970;52.396;9.586;2022-12-16T14:20:49;19.83;;;9.93;;
62014;SDS011;47970;52.396;9.586;2022-12-16T14:23:40;16.75;;;8.75;;
62014;SDS011;47970;52.396;9.586;2022-12-16T14:26:27;22.95;;;9.68;;
62014;SDS011;47970;52.396;9.586;2022-12-16T14:29:17;26.05;;;11.10;;
62014;SDS011;47970;52.396;9.586;2022-12-16T14:32:16;25.58;;;10.45;;
62014;SDS011;47970;52.396;9.586;2022-12-16T14:35:00;22.02;;;11.10;;
62014;SDS011;47970;52.396;9.586;2022-12-16T14:37:44;24.42;;;11.38;;
62014;SDS011;47970;52.396;9.586;2022-12-16T14:40:29;23.88;;;11.07;;
62014;SDS011;47970;52.396;9.586;2022-12-16T14:43:17;21.30;;;10.55;;
62014;SDS011;47970;52.396;9.586;2022-12-16T14:46:01;19.73;;;10.75;;
62014;SDS011;47970;52.396;9.586;2022-12-16T14:48:46;22.75;;;11.57;;
62014;SDS011;47970;52.396;9.586;2022-12-16T14:51:31;28.38;;;11.32;;
62014;SDS011;47970;52.396;9.586;2022-12-16T14:54:16;22.90;;;11.60;;
62014;SDS011;47970;52.396;9.586;2022-12-16T14:57:00;24.73;;;9.98;;
62014;SDS011;47970;52.396;9.586;2022-12-16T14:59:44;25.50;;;10.75;;
62014;SDS011;47970;52.396;9.586;2022-12-16T15:02:46;19.98;;;9.05;;
62014;SDS011;47970;52.396;9.586;2022-12-16T15:05:32;25.25;;;9.65;;
62014;SDS011;47970;52.396;9.586;2022-12-16T15:08:16;26.77;;;10.90;;
62014;SDS011;47970;52.396;9.586;2022-12-16T15:11:01;20.05;;;10.02;;
62014;SDS011;47970;52.396;9.586;2022-12-16T15:13:46;25.90;;;11.52;;
62014;SDS011;47970;52.396;9.586;2022-12-16T15:16:32;23.95;;;10.00;;
62014;SDS011;47970;52.396;9.586;2022-12-16T15:19:19;29.88;;;10.82;;
62014;SDS011;47970;52.396;9.586;2022-12-16T15:22:03;23.85;;;10.40;;
62014;SDS011;47970;52.396;9.586;2022-12-16T15:24:47;22.38;;;10.10;;
62014;SDS011;47970;52.396;9.586;2022-12-16T15:27:35;30.77;;;9.98;;
62014;SDS011;47970;52.396;9.586;2022-12-16T15:33:27;20.33;;;10.82;;
62014;SDS011;47970;52.396;9.586;2022-12-16T15:36:18;31.23;;;12.55;;
62014;SDS011;47970;52.396;9.586;2022-12-16T15:39:08;21.52;;;11.52;;
62014;SDS011;47970;52.396;9.586;2022-12-16T15:41:55;24.70;;;11.55;;
62014;SDS011;47970;52.396;9.586;2022-12-16T15:44:43;21.10;;;11.25;;
62014;SDS011;47970;52.396;9.586;2022-12-16T15:47:30;28.70;;;12.82;;
62014;SDS011;47970;52.396;9.586;2022-12-16T15:50:14;25.92;;;12.35;;
62014;SDS011;47970;52.396;9.586;2022-12-16T15:55:57;24.48;;;11.55;;
62014;SDS011;47970;52.396;9.586;2022-12-16T15:58:41;26.05;;;11.52;;
62014;SDS011;47970;52.396;9.586;2022-12-16T16:01:25;38.15;;;12.63;;
62014;SDS011;47970;52.396;9.586;2022-12-16T16:04:26;28.65;;;12.00;;
62014;SDS011;47970;52.396;9.586;2022-12-16T16:07:17;24.45;;;11.82;;
62014;SDS011;47970;52.396;9.586;2022-12-16T16:10:09;25.83;;;11.50;;
62014;SDS011;47970;52.396;9.586;2022-12-16T16:12:56;22.85;;;10.20;;
62014;SDS011;47970;52.396;9.586;2022-12-16T16:15:40;28.98;;;11.32;;
62014;SDS011;47970;52.396;9.586;2022-12-16T16:18:24;27.65;;;11.77;;
62014;SDS011;47970;52.396;9.586;2022-12-16T16:21:08;27.60;;;11.98;;
62014;SDS011;47970;52.396;9.586;2022-12-16T16:23:52;28.67;;;12.77;;
62014;SDS011;47970;52.396;9.586;2022-12-16T16:26:36;26.88;;;12.80;;
62014;SDS011;47970;52.396;9.586;2022-12-16T16:29:20;27.55;;;13.45;;
62014;SDS011;47970;52.396;9.586;2022-12-16T16:32:04;29.20;;;12.20;;
62014;SDS011;47970;52.396;9.586;2022-12-16T16:34:51;28.13;;;13.10;;
62014;SDS011;47970;52.396;9.586;2022-12-16T16:37:35;28.23;;;13.05;;
62014;SDS011;47970;52.396;9.586;2022-12-16T16:40:35;32.85;;;15.27;;
62014;SDS011;47970;52.396;9.586;2022-12-16T16:43:20;34.80;;;15.20;;
62014;SDS011;47970;52.396;9.586;2022-12-16T16:49:09;26.55;;;13.95;;
62014;SDS011;47970;52.396;9.586;2022-12-16T16:51:53;36.25;;;13.63;;
62014;SDS011;47970;52.396;9.586;2022-12-16T16:54:38;35.05;;;12.02;;
62014;SDS011;47970;52.396;9.586;2022-12-16T16:57:21;30.75;;;13.60;;
62014;SDS011;47970;52.396;9.586;2022-12-16T17:00:05;28.38;;;13.60;;
62014;SDS011;47970;52.396;9.586;2022-12-16T17:02:50;33.78;;;14.13;;
62014;SDS011;47970;52.396;9.586;2022-12-16T17:05:34;30.35;;;13.48;;
62014;SDS011;47970;52.396;9.586;2022-12-16T17:08:19;29.40;;;13.73;;
62014;SDS011;47970;52.396;9.586;2022-12-16T17:11:04;28.83;;;13.60;;
62014;SDS011;47970;52.396;9.586;2022-12-16T17:13:53;35.80;;;13.80;;
62014;SDS011;47970;52.396;9.586;2022-12-16T17:16:37;34.55;;;16.05;;
62014;SDS011;47970;52.396;9.586;2022-12-16T17:19:21;31.50;;;15.00;;
62014;SDS011;47970;52.396;9.586;2022-12-16T17:22:05;41.60;;;17.05;;
62014;SDS011;47970;52.396;9.586;2022-12-16T17:24:49;46.25;;;19.58;;
62014;SDS011;47970;52.396;9.586;2022-12-16T17:27:33;43.05;;;17.95;;
62014;SDS011;47970;52.396;9.586;2022-12-16T17:30:18;35.90;;;17.80;;
62014;SDS011;47970;52.396;9.586;2022-12-16T17:33:02;42.63;;;19.13;;
62014;SDS011;47970;52.396;9.586;2022-12-16T17:35:47;33.50;;;17.75;;
62014;SDS011;47970;52.396;9.586;2022-12-16T17:38:30;37.30;;;18.40;;
62014;SDS011;47970;52.396;9.586;2022-12-16T17:41:16;48.72;;;20.25;;
62014;SDS011;47970;52.396;9.586;2022-12-16T17:44:00;41.10;;;20.05;;
62014;SDS011;47970;52.396;9.586;2022-12-16T17:46:44;46.67;;;21.17;;
62014;SDS011;47970;52.396;9.586;2022-12-16T17:49:28;47.63;;;20.80;;
62014;SDS011;47970;52.396;9.586;2022-12-16T17:52:12;44.72;;;19.25;;
62014;SDS011;47970;52.396;9.586;2022-12-16T17:54:56;33.13;;;17.17;;
62014;SDS011;47970;52.396;9.586;2022-12-16T17:57:40;38.78;;;18.42;;
62014;SDS011;47970;52.396;9.586;2022-12-16T18:00:24;37.38;;;18.27;;